Time;durP1;ratioP1;P1;durP2;ratioP2;P2;SDS_P1;SDS_P2;PMS_P1;PMS_P2;Temp;Humidity;BMP_temperature;BMP_pressure;BME280_temperature;BME280_humidity;BME280_pressure;Samples;Min_cycle;Max_cycle;Signal;HPM_P1;HPM_P2
2023/12/07 00:03:31;;;;;;;2.63;1.10;;;;;;;17.36;51.67;96911.78;10392727;28;20037;-30
2023/12/07 00:08:31;;;;;;;2.85;0.82;;;;;;;17.37;50.21;96912.63;10389351;28;20026;-31
2023/12/07 00:13:32;;;;;;;2.17;0.70;;;;;;;17.38;52.06;96904.19;10389738;28;20037;-30
2023/12/07 00:18:33;;;;;;;1.77;0.77;;;;;;;17.36;52.23;96900.78;10383780;28;20292;-30
2023/12/07 00:23:33;;;;;;;3.17;1.02;;;;;;;17.38;50.90;96902.50;10386503;28;20297;-31
2023/12/07 00:28:33;;;;;;;3.03;1.20;;;;;;;17.39;50.40;96903.34;10398214;28;20389;-29
2023/12/07 00:33:34;;;;;;;2.00;0.70;;;;;;;17.39;51.39;96908.41;10398619;28;20407;-30
2023/12/07 00:38:34;;;;;;;1.33;1.23;;;;;;;17.40;51.84;96907.59;10386966;28;20492;-30
2023/12/07 00:43:34;;;;;;;2.90;0.63;;;;;;;17.38;51.09;96920.22;10386573;28;20041;-30
2023/12/07 00:48:35;;;;;;;1.93;0.70;;;;;;;17.40;50.90;96907.59;10388206;28;20045;-29
2023/12/07 00:53:35;;;;;;;3.87;1.07;;;;;;;17.40;50.70;96907.59;10381137;28;20037;-30
2023/12/07 00:58:36;;;;;;;2.30;1.10;;;;;;;17.35;50.86;96909.19;10392752;28;20042;-30
2023/12/07 01:03:36;;;;;;;1.70;0.68;;;;;;;17.41;50.91;96927.84;10385244;28;20034;-30
2023/12/07 01:08:39;;;;;;;0.83;0.60;;;;;;;17.40;51.02;96907.59;10381586;28;20420;-29
2023/12/07 01:13:39;;;;;;;2.47;1.10;;;;;;;17.38;51.34;96917.69;10382375;28;20396;-30
2023/12/07 01:18:40;;;;;;;1.63;0.87;;;;;;;17.40;50.78;96925.31;10376943;28;20037;-29
2023/12/07 01:23:40;;;;;;;2.13;0.60;;;;;;;17.39;51.32;96933.72;10381520;28;20026;-30
2023/12/07 01:28:40;;;;;;;1.70;0.73;;;;;;;17.36;51.50;96933.69;10384941;28;20030;-30
2023/12/07 01:33:41;;;;;;;2.10;0.80;;;;;;;17.37;51.18;96937.91;10377536;28;20025;-30
2023/12/07 01:38:43;;;;;;;2.43;0.77;;;;;;;17.37;50.80;96932.84;10385240;28;20396;-29
2023/12/07 01:43:47;;;;;;;1.88;0.57;;;;;;;17.37;51.13;96937.91;10380491;28;20064;-30
2023/12/07 01:48:49;;;;;;;3.05;0.80;;;;;;;17.37;51.51;96932.84;10391280;28;20083;-31
2023/12/07 01:53:50;;;;;;;2.47;0.88;;;;;;;17.36;51.03;96924.44;10385614;28;20053;-30
2023/12/07 01:58:51;;;;;;;2.28;0.80;;;;;;;17.37;51.21;96926.13;10382388;28;20030;-31
2023/12/07 02:03:52;;;;;;;2.75;1.95;;;;;;;17.37;51.34;96922.75;10385036;28;20042;-30
2023/12/07 02:08:52;;;;;;;3.10;1.17;;;;;;;17.37;50.99;96927.78;10386060;28;20029;-31
2023/12/07 02:13:57;;;;;;;2.65;0.77;;;;;;;17.37;51.17;96927.78;10387439;28;20026;-30
2023/12/07 02:19:17;;;;;;;1.80;0.90;;;;;;;17.35;50.85;96932.84;10388671;28;20550;-29
2023/12/07 02:24:25;;;;;;;4.07;1.10;;;;;;;17.37;50.68;96933.72;10388586;28;20073;-30
2023/12/07 02:29:26;;;;;;;1.60;0.80;;;;;;;17.37;50.76;96936.25;10413246;28;20038;-29
2023/12/07 02:34:26;;;;;;;1.50;0.83;;;;;;;17.34;51.14;96937.88;10425766;28;20413;-30
2023/12/07 02:39:26;;;;;;;2.47;0.80;;;;;;;17.35;51.05;96939.56;10409762;28;20029;-30
2023/12/07 02:44:27;;;;;;;2.95;0.80;;;;;;;17.35;51.39;96944.63;10413900;28;20084;-30
2023/12/07 02:49:27;;;;;;;1.38;0.80;;;;;;;17.34;50.54;96955.59;10410263;28;20398;-29
2023/12/07 02:54:28;;;;;;;2.47;0.77;;;;;;;17.36;51.08;96951.41;10403520;28;20039;-30
2023/12/07 02:59:28;;;;;;;1.77;0.80;;;;;;;17.36;50.79;96941.28;10419981;28;20029;-30
2023/12/07 03:04:28;;;;;;;2.27;1.20;;;;;;;17.36;51.21;96953.94;10421182;28;20041;-29
2023/12/07 03:09:29;;;;;;;1.70;0.70;;;;;;;17.35;50.86;96949.69;10410868;28;20061;-30
2023/12/07 03:14:29;;;;;;;1.87;1.07;;;;;;;17.34;51.00;96942.94;10410874;28;20281;-30
2023/12/07 03:19:30;;;;;;;1.70;0.70;;;;;;;17.25;51.19;96925.16;10400575;28;20049;-30
2023/12/07 03:24:30;;;;;;;2.28;1.33;;;;;;;17.32;51.09;96929.44;10409258;28;20038;-30
2023/12/07 03:29:31;;;;;;;2.10;0.70;;;;;;;17.34;50.89;96930.28;10405559;28;20037;-30
2023/12/07 03:34:32;;;;;;;1.80;1.38;;;;;;;17.27;51.17;96923.47;10412049;28;20415;-30
2023/12/07 03:39:32;;;;;;;1.40;0.73;;;;;;;17.36;51.25;96933.69;10418264;28;20049;-30
2023/12/07 03:44:33;;;;;;;3.33;0.77;;;;;;;17.36;50.88;96936.22;10397893;28;20037;-31
2023/12/07 03:49:33;;;;;;;1.63;0.87;;;;;;;17.36;50.77;96931.16;10419928;28;20293;-30
2023/12/07 03:54:37;;;;;;;1.87;0.90;;;;;;;17.22;51.72;96920.03;10412861;28;20806;-29
2023/12/07 03:59:37;;;;;;;1.13;0.77;;;;;;;17.36;51.40;96941.28;10419862;28;20034;-29
2023/12/07 04:04:38;;;;;;;2.00;1.00;;;;;;;17.34;51.81;96948.81;10390264;28;20038;-30
2023/12/07 04:09:38;;;;;;;1.58;0.63;;;;;;;17.34;51.19;96945.47;10388353;28;20084;-30
2023/12/07 04:14:39;;;;;;;0.73;0.40;;;;;;;17.31;51.59;96933.63;10422785;28;20030;-29
2023/12/07 04:19:39;;;;;;;2.00;0.70;;;;;;;17.32;51.33;96937.03;10404556;28;20403;-29
2023/12/07 04:24:39;;;;;;;3.37;0.83;;;;;;;17.32;51.42;96942.91;10405360;28;20410;-31
2023/12/07 04:29:40;;;;;;;2.97;0.60;;;;;;;17.31;51.39;96935.34;10420093;28;20542;-30
2023/12/07 04:34:40;;;;;;;2.70;0.67;;;;;;;17.32;51.55;96935.31;10414446;28;20044;-30
2023/12/07 04:39:40;;;;;;;3.07;0.80;;;;;;;17.33;51.37;96936.19;10409885;28;20037;-30
2023/12/07 04:44:41;;;;;;;1.90;0.80;;;;;;;17.28;51.04;96935.28;10399530;28;20041;-31
2023/12/07 04:49:41;;;;;;;0.77;0.70;;;;;;;17.34;50.20;96935.34;10397771;28;20037;-32
2023/12/07 04:54:42;;;;;;;1.77;0.60;;;;;;;17.36;48.66;96926.09;10397399;28;20034;-30
2023/12/07 04:59:46;;;;;;;1.83;0.77;;;;;;;17.34;48.85;96921.00;10401614;28;20041;-31
2023/12/07 05:04:47;;;;;;;2.72;0.55;;;;;;;17.35;48.48;96930.31;10421889;28;20029;-30
2023/12/07 05:09:47;;;;;;;0.80;0.57;;;;;;;17.35;48.14;96931.97;10404919;28;20411;-30
2023/12/07 05:14:47;;;;;;;2.10;0.90;;;;;;;17.36;46.96;96929.50;10399267;28;20076;-30
2023/12/07 05:19:48;;;;;;;0.93;0.80;;;;;;;17.38;46.79;96919.38;10388965;28;20033;-30
2023/12/07 05:24:48;;;;;;;0.97;0.70;;;;;;;17.36;46.74;96921.03;10377478;28;20038;-30
2023/12/07 05:29:49;;;;;;;1.43;0.93;;;;;;;17.35;46.28;96924.38;10397077;28;20083;-30
2023/12/07 05:34:50;;;;;;;1.65;1.20;;;;;;;17.39;45.69;96926.13;10405115;28;20290;-30
2023/12/07 05:39:50;;;;;;;4.10;1.65;;;;;;;17.36;45.61;96919.38;10403236;28;20153;-32
2023/12/07 05:44:51;;;;;;;2.93;2.37;;;;;;;17.33;45.66;96924.34;10417269;28;20025;-30
2023/12/07 05:49:51;;;;;;;3.77;2.43;;;;;;;17.37;44.89;96937.91;10416610;28;20033;-30
2023/12/07 05:54:51;;;;;;;4.90;3.27;;;;;;;17.40;44.65;96932.91;10418866;28;20036;-30
2023/12/07 05:59:52;;;;;;;5.40;3.07;;;;;;;17.38;45.01;96926.97;10420385;28;20124;-30
2023/12/07 06:04:53;;;;;;;3.93;2.97;;;;;;;17.39;44.75;96924.44;10406635;28;20399;-30
2023/12/07 06:09:53;;;;;;;7.00;3.53;;;;;;;17.38;45.44;96930.34;10411770;28;20064;-30
2023/12/07 06:14:54;;;;;;;4.00;2.90;;;;;;;17.38;44.57;96934.56;10415110;28;20036;-30
2023/12/07 06:19:55;;;;;;;7.90;4.03;;;;;;;17.38;44.28;96939.59;10406995;28;20037;-30
2023/12/07 06:24:55;;;;;;;5.00;3.70;;;;;;;17.35;43.62;96939.56;10403144;28;20033;-29
2023/12/07 06:29:57;;;;;;;7.10;3.60;;;;;;;17.09;44.07;96943.56;10418434;28;20052;-29
2023/12/07 06:34:58;;;;;;;4.22;2.90;;;;;;;16.91;42.83;96920.63;10414817;28;20038;-31
2023/12/07 06:40:01;;;;;;;5.30;2.90;;;;;;;16.67;41.66;96938.09;10401878;28;20037;-29
2023/12/07 06:45:02;;;;;;;4.65;2.53;;;;;;;16.93;41.94;96924.03;10403142;28;20034;-30
2023/12/07 06:50:03;;;;;;;7.38;2.80;;;;;;;17.03;42.54;96931.72;10407467;28;20492;-30
2023/12/07 06:55:04;;;;;;;4.72;3.15;;;;;;;17.07;43.39;96922.47;10400426;28;20391;-31
2023/12/07 07:00:10;;;;;;;3.25;2.63;;;;;;;17.08;43.00;96919.94;10404746;28;20040;-30
2023/12/07 07:05:11;;;;;;;4.07;2.20;;;;;;;17.11;43.57;96909.00;10403604;28;20057;-30
2023/12/07 07:10:12;;;;;;;2.95;2.30;;;;;;;17.09;43.54;96910.69;10410931;28;20032;-30
2023/12/07 07:15:12;;;;;;;2.83;2.00;;;;;;;17.09;43.73;96901.38;10409810;28;20033;-30
2023/12/07 07:20:13;;;;;;;3.28;1.95;;;;;;;17.05;43.18;96893.75;10406626;28;20056;-30
2023/12/07 07:25:15;;;;;;;2.90;2.13;;;;;;;17.01;43.14;96894.59;10404031;28;20044;-31
2023/12/07 07:30:16;;;;;;;1.85;1.70;;;;;;;17.08;42.88;96906.47;10410804;28;20079;-29
2023/12/07 07:35:16;;;;;;;2.20;1.83;;;;;;;17.09;42.72;96900.56;10401712;28;20040;-29
2023/12/07 07:40:16;;;;;;;2.47;1.67;;;;;;;17.08;42.92;96903.94;10402937;28;20044;-32
2023/12/07 07:45:17;;;;;;;3.10;1.50;;;;;;;17.05;43.07;96901.34;10403285;28;20358;-29
2023/12/07 07:50:17;;;;;;;2.40;1.60;;;;;;;17.07;42.99;96897.19;10409807;28;20290;-30
2023/12/07 07:55:18;;;;;;;2.77;1.47;;;;;;;17.04;42.83;96875.22;10412312;28;20399;-29
2023/12/07 08:00:19;;;;;;;1.83;1.50;;;;;;;17.07;42.27;96882.00;10392604;28;20315;-31
2023/12/07 08:05:19;;;;;;;3.83;1.60;;;;;;;17.05;42.88;96871.88;10412298;28;20765;-31
2023/12/07 08:10:20;;;;;;;1.90;1.70;;;;;;;17.07;42.42;96884.53;10397344;28;20041;-30
2023/12/07 08:15:21;;;;;;;1.92;1.40;;;;;;;17.07;42.41;96912.34;10395129;28;20053;-29
2023/12/07 08:20:22;;;;;;;1.65;1.33;;;;;;;17.06;42.73;96910.66;10402505;28;20384;-29
2023/12/07 08:25:22;;;;;;;1.97;1.40;;;;;;;17.06;42.26;96908.13;10406440;28;20037;-30
2023/12/07 08:30:22;;;;;;;1.40;1.30;;;;;;;17.05;42.36;96899.69;10407007;28;20037;-30
2023/12/07 08:35:23;;;;;;;1.75;1.33;;;;;;;17.05;42.04;96893.75;10396776;28;20041;-30
2023/12/07 08:40:23;;;;;;;2.03;1.70;;;;;;;17.05;42.11;96891.22;10399377;28;20041;-29
2023/12/07 08:45:23;;;;;;;2.87;1.47;;;;;;;17.04;42.33;96898.00;10397274;28;20795;-29
2023/12/07 08:50:24;;;;;;;1.53;1.43;;;;;;;17.04;42.05;96899.66;10402930;28;20037;-30
2023/12/07 08:55:24;;;;;;;1.87;1.43;;;;;;;17.02;41.85;96896.28;10402889;28;20303;-29
2023/12/07 09:00:25;;;;;;;1.90;1.37;;;;;;;17.05;42.22;96891.22;10397433;28;20283;-30
2023/12/07 09:05:26;;;;;;;1.42;1.33;;;;;;;17.03;41.99;96880.28;10396953;28;20041;-30
2023/12/07 09:10:27;;;;;;;3.22;1.58;;;;;;;17.04;41.81;96876.91;10394114;28;20403;-31
2023/12/07 09:15:28;;;;;;;1.10;1.00;;;;;;;17.04;42.39;96875.22;10403919;28;20032;-30
2023/12/07 09:20:28;;;;;;;1.77;1.23;;;;;;;17.05;41.40;96876.06;10398465;28;20033;-29
2023/12/07 09:25:30;;;;;;;1.23;1.13;;;;;;;17.01;41.11;96876.88;10402718;28;20033;-29
2023/12/07 09:30:30;;;;;;;2.15;1.42;;;;;;;17.01;41.79;96872.69;10399228;28;20106;-30
2023/12/07 09:35:34;;;;;;;1.40;1.20;;;;;;;17.03;41.98;96877.75;10402725;28;20034;-30
2023/12/07 09:40:34;;;;;;;1.52;1.13;;;;;;;17.03;41.35;96882.78;10396980;28;20044;-29
2023/12/07 09:45:34;;;;;;;1.50;1.13;;;;;;;17.02;41.17;96865.94;10401188;28;20056;-30
2023/12/07 09:50:35;;;;;;;1.10;1.00;;;;;;;17.00;41.51;96857.50;10401694;28;20041;-30
2023/12/07 09:55:39;;;;;;;1.33;1.17;;;;;;;17.02;41.45;96835.56;10400337;28;20335;-30
2023/12/07 10:00:39;;;;;;;1.23;1.13;;;;;;;17.01;41.27;96839.81;10396804;28;20049;-30
2023/12/07 10:05:57;;;;;;;1.00;0.90;;;;;;;17.02;41.16;96830.53;10394233;28;20488;-29
2023/12/07 10:11:05;;;;;;;1.15;1.05;;;;;;;17.01;41.03;96838.94;10397337;28;20080;-29
2023/12/07 10:16:06;;;;;;;1.48;0.95;;;;;;;16.99;41.25;96831.34;10399142;28;20415;-30
2023/12/07 10:21:10;;;;;;;1.30;1.20;;;;;;;17.02;41.01;96822.94;10401407;28;20043;-30
2023/12/07 10:26:11;;;;;;;2.42;1.33;;;;;;;17.02;41.00;96822.94;10397809;28;20088;-30
2023/12/07 10:31:11;;;;;;;0.90;0.77;;;;;;;17.03;40.73;96817.03;10400565;28;20492;-30
2023/12/07 10:36:11;;;;;;;1.20;1.10;;;;;;;17.02;41.08;96806.09;10397108;28;20034;-31
2023/12/07 10:41:12;;;;;;;1.17;1.00;;;;;;;17.03;40.97;96806.91;10406261;28;20063;-30
2023/12/07 10:46:18;;;;;;;0.98;0.82;;;;;;;17.02;40.87;96792.59;10402321;28;20036;-30
2023/12/07 10:51:40;;;;;;;1.73;1.10;;;;;;;17.00;40.79;96777.38;10406833;28;20394;-29
2023/12/07 10:56:44;;;;;;;1.10;1.00;;;;;;;16.99;40.98;96772.34;10404942;28;20037;-31
2023/12/07 11:01:46;;;;;;;1.65;1.10;;;;;;;16.99;40.74;96762.22;10395676;28;20037;-29
2023/12/07 11:06:50;;;;;;;0.82;0.82;;;;;;;16.98;40.70;96755.47;10404158;28;20042;-29
2023/12/07 11:12:03;;;;;;;0.75;0.75;;;;;;;16.97;40.85;96738.59;10393861;28;20030;-29
2023/12/07 11:17:04;;;;;;;1.17;0.82;;;;;;;16.98;41.02;96722.59;10406863;28;20045;-29
2023/12/07 11:22:07;;;;;;;0.80;0.80;;;;;;;17.05;40.91;96693.94;10399526;28;20396;-30
2023/12/07 11:27:07;;;;;;;1.10;0.95;;;;;;;17.03;40.91;96683.00;10399113;28;20527;-30
2023/12/07 11:32:08;;;;;;;1.30;0.90;;;;;;;17.10;41.48;96682.19;10398497;28;20049;-30
2023/12/07 11:37:16;;;;;;;0.93;0.82;;;;;;;17.16;41.16;96664.50;10405095;28;20045;-29
2023/12/07 11:42:18;;;;;;;3.17;0.82;;;;;;;16.96;41.06;96655.97;10393867;28;20037;-32
2023/12/07 11:47:20;;;;;;;2.35;1.20;;;;;;;17.08;41.93;96635.81;10396421;28;20111;-29
2023/12/07 11:52:21;;;;;;;1.98;1.00;;;;;;;17.06;41.07;96627.38;10400008;28;20045;-30
2023/12/07 11:57:22;;;;;;;2.65;0.80;;;;;;;17.06;40.50;96628.22;10397271;28;20076;-30
2023/12/07 12:02:22;;;;;;;1.95;1.20;;;;;;;17.11;40.66;96618.97;10400487;28;20087;-29
2023/12/07 12:07:25;;;;;;;3.03;1.10;;;;;;;17.17;40.39;96615.59;10398295;28;20030;-29
2023/12/07 12:12:25;;;;;;;6.40;1.00;;;;;;;17.19;40.69;96608.84;10388438;28;20055;-30
2023/12/07 12:17:26;;;;;;;1.53;0.77;;;;;;;17.23;41.29;96605.53;10395693;28;20094;-29
2023/12/07 12:22:26;;;;;;;1.70;0.87;;;;;;;17.26;41.30;96620.69;10396258;28;20034;-30
2023/12/07 12:27:26;;;;;;;4.63;1.20;;;;;;;17.31;41.78;96614.81;10404383;28;20313;-30
2023/12/07 12:32:27;;;;;;;3.58;1.10;;;;;;;17.35;41.99;96618.19;10351933;28;20032;-29
2023/12/07 12:37:32;;;;;;;2.60;1.20;;;;;;;17.11;42.59;96605.47;10341922;28;20087;-29
2023/12/07 12:42:34;;;;;;;4.70;1.80;;;;;;;17.26;44.55;96625.75;10344585;28;20033;-29
2023/12/07 12:47:35;;;;;;;4.18;1.40;;;;;;;17.26;45.02;96631.66;10343337;28;20037;-29
2023/12/07 12:52:36;;;;;;;2.95;1.20;;;;;;;17.32;43.37;96628.31;10346738;28;20388;-29
2023/12/07 12:57:37;;;;;;;3.38;1.38;;;;;;;17.31;44.47;96635.03;10349485;28;20795;-29
2023/12/07 13:02:38;;;;;;;5.60;3.40;;;;;;;17.31;44.86;96631.69;10350553;28;20037;-29
2023/12/07 13:07:38;;;;;;;2.60;1.50;;;;;;;17.27;45.02;96622.38;10341538;28;20041;-29
2023/12/07 13:12:38;;;;;;;2.27;1.67;;;;;;;17.29;45.35;96619.03;10349930;28;20099;-30
2023/12/07 13:17:40;;;;;;;2.43;1.67;;;;;;;17.31;45.47;96629.16;10340388;28;20129;-30
2023/12/07 13:22:43;;;;;;;3.70;1.67;;;;;;;17.30;45.69;96612.25;10347331;28;21673;-29
2023/12/07 13:27:43;;;;;;;4.50;1.50;;;;;;;17.28;44.80;96584.44;10347182;28;20367;-29
2023/12/07 13:32:44;;;;;;;3.08;1.90;;;;;;;17.25;45.24;96579.34;10346860;28;20037;-32
2023/12/07 13:37:47;;;;;;;4.37;1.47;;;;;;;17.26;44.41;96573.44;10339335;28;20033;-32
2023/12/07 13:42:48;;;;;;;3.20;2.08;;;;;;;17.31;44.09;96578.56;10371175;28;20041;-30
2023/12/07 13:47:48;;;;;;;6.70;2.47;;;;;;;17.28;45.10;96565.88;10388488;28;20036;-30
2023/12/07 13:52:48;;;;;;;3.30;1.70;;;;;;;17.28;44.80;96553.22;10385098;28;20034;-30
2023/12/07 13:57:50;;;;;;;2.57;1.63;;;;;;;17.28;45.72;96538.03;10397182;28;20448;-29
2023/12/07 14:02:52;;;;;;;5.53;2.08;;;;;;;17.28;45.73;96512.75;10400505;28;20092;-30
2023/12/07 14:07:53;;;;;;;2.77;2.17;;;;;;;17.29;44.78;96520.34;10393266;28;20445;-30
2023/12/07 14:12:53;;;;;;;3.77;2.47;;;;;;;17.28;45.03;96495.88;10395885;28;20500;-30
2023/12/07 14:17:54;;;;;;;2.53;2.10;;;;;;;17.33;44.61;96490.84;10395464;28;20385;-29
2023/12/07 14:22:55;;;;;;;5.07;3.17;;;;;;;17.27;43.78;96473.97;10396034;28;20597;-30
2023/12/07 14:27:55;;;;;;;3.38;2.60;;;;;;;17.27;44.33;96460.47;10399017;28;20041;-30
2023/12/07 14:32:56;;;;;;;3.97;2.27;;;;;;;17.34;43.43;96462.97;10393921;28;20455;-30
2023/12/07 14:37:56;;;;;;;6.00;2.37;;;;;;;17.36;45.02;96455.44;10396915;28;20357;-30
2023/12/07 14:42:57;;;;;;;2.83;2.30;;;;;;;17.39;44.79;96457.94;10393116;28;20307;-30
2023/12/07 14:47:57;;;;;;;8.30;2.13;;;;;;;17.41;44.48;96448.69;10402072;28;20033;-30
2023/12/07 14:52:58;;;;;;;5.03;2.42;;;;;;;17.40;45.31;96442.78;10397167;28;20062;-30
2023/12/07 14:57:58;;;;;;;4.17;2.33;;;;;;;17.38;45.53;96441.09;10395434;28;20030;-30
2023/12/07 15:02:58;;;;;;;3.17;2.30;;;;;;;17.40;44.09;96441.97;10398764;28;20030;-30
2023/12/07 15:07:59;;;;;;;5.47;3.07;;;;;;;17.41;44.29;96441.09;10392659;28;20053;-29
2023/12/07 15:12:59;;;;;;;8.40;2.53;;;;;;;17.44;44.94;96448.69;10403855;28;20031;-31
2023/12/07 15:18:00;;;;;;;5.37;3.30;;;;;;;17.46;43.92;96452.06;10406803;28;20792;-30
2023/12/07 15:23:00;;;;;;;5.10;3.30;;;;;;;17.42;43.86;96427.59;10393530;28;20408;-31
2023/12/07 15:28:00;;;;;;;5.07;3.50;;;;;;;17.52;43.49;96426.75;10396787;28;20120;-31
2023/12/07 15:33:01;;;;;;;13.13;4.07;;;;;;;17.52;44.11;96411.56;10394998;28;20042;-30
2023/12/07 15:38:01;;;;;;;7.90;4.43;;;;;;;17.45;45.29;96392.16;10396784;28;20033;-29
2023/12/07 15:43:02;;;;;;;8.52;4.53;;;;;;;17.50;44.94;96403.13;10406961;28;20037;-29
2023/12/07 15:48:03;;;;;;;12.82;6.10;;;;;;;17.38;44.45;96405.66;10409886;28;20557;-31
2023/12/07 15:53:03;;;;;;;11.43;4.95;;;;;;;17.48;45.08;96393.00;10387779;28;20026;-30
2023/12/07 15:58:05;;;;;;;12.20;6.13;;;;;;;17.52;44.00;96386.25;10405373;28;20036;-30
2023/12/07 16:03:06;;;;;;;10.95;4.78;;;;;;;17.54;44.27;96392.16;10391001;28;20398;-30
2023/12/07 16:08:07;;;;;;;12.73;5.63;;;;;;;17.57;44.50;96384.56;10400839;28;20048;-30
2023/12/07 16:13:08;;;;;;;6.23;4.30;;;;;;;17.41;44.47;96372.78;10402157;28;20063;-30
2023/12/07 16:18:08;;;;;;;11.18;4.90;;;;;;;17.45;44.80;96371.91;10387294;28;20810;-30
2023/12/07 16:23:08;;;;;;;19.13;5.53;;;;;;;17.41;44.09;96347.47;10386247;28;20029;-30
2023/12/07 16:28:09;;;;;;;10.73;4.07;;;;;;;17.45;43.89;96339.03;10389042;28;20028;-30
2023/12/07 16:33:09;;;;;;;7.87;4.60;;;;;;;17.42;43.78;96332.28;10393458;28;20293;-30
2023/12/07 16:38:09;;;;;;;11.20;4.50;;;;;;;17.44;43.98;96329.75;10383110;28;20037;-30
2023/12/07 16:43:10;;;;;;;6.50;4.97;;;;;;;17.47;43.52;96327.19;10383647;28;20774;-31
2023/12/07 16:48:10;;;;;;;8.97;5.57;;;;;;;17.45;43.57;96311.19;10397640;28;20033;-30
2023/12/07 16:53:13;;;;;;;12.87;6.20;;;;;;;17.46;43.52;96300.22;10383692;28;20033;-30
2023/12/07 16:58:15;;;;;;;7.13;4.88;;;;;;;17.43;42.38;96290.09;10396357;28;20515;-31
2023/12/07 17:03:17;;;;;;;7.90;5.22;;;;;;;17.42;43.36;96288.44;10382400;28;20045;-30
2023/12/07 17:08:20;;;;;;;9.35;4.95;;;;;;;17.42;43.31;96283.38;10384700;28;20034;-30
2023/12/07 17:13:21;;;;;;;7.68;5.03;;;;;;;17.42;43.67;96274.06;10393717;28;20057;-29
2023/12/07 17:18:21;;;;;;;7.90;5.33;;;;;;;17.41;42.85;96271.56;10396002;28;20088;-30
2023/12/07 17:23:21;;;;;;;8.70;6.10;;;;;;;17.39;42.35;96258.91;10383004;28;20042;-30
2023/12/07 17:28:22;;;;;;;6.37;5.70;;;;;;;17.43;41.63;96259.75;10393808;28;20042;-30
2023/12/07 17:33:22;;;;;;;13.33;6.10;;;;;;;17.45;42.36;96258.03;10390027;28;20029;-29
2023/12/07 17:38:23;;;;;;;7.50;6.10;;;;;;;17.44;43.05;96269.00;10395729;28;20038;-30
2023/12/07 17:43:23;;;;;;;7.63;5.00;;;;;;;17.45;42.50;96258.03;10411986;28;20035;-29
2023/12/07 17:48:23;;;;;;;10.13;5.43;;;;;;;17.39;42.20;96256.38;10410470;28;20037;-29
2023/12/07 17:53:24;;;;;;;10.97;6.37;;;;;;;17.50;42.71;96269.00;10398383;28;20109;-30
2023/12/07 17:58:24;;;;;;;9.30;6.20;;;;;;;17.53;42.07;96281.63;10398258;28;20099;-30
2023/12/07 18:03:24;;;;;;;9.43;6.53;;;;;;;17.53;42.05;96276.56;10398411;28;20041;-29
2023/12/07 18:08:25;;;;;;;15.10;9.00;;;;;;;17.49;43.40;96269.84;10396010;28;20330;-30
2023/12/07 18:13:25;;;;;;;16.37;8.20;;;;;;;17.30;43.77;96263.09;10408295;28;20038;-29
2023/12/07 18:18:26;;;;;;;15.50;9.18;;;;;;;17.41;44.28;96279.97;10398304;28;20387;-30
2023/12/07 18:23:26;;;;;;;13.83;8.80;;;;;;;17.44;44.58;96286.72;10397738;28;20036;-31
2023/12/07 18:28:26;;;;;;;16.00;8.70;;;;;;;17.43;43.79;96274.94;10387274;28;20785;-29
2023/12/07 18:33:27;;;;;;;13.33;8.17;;;;;;;17.42;43.99;96265.66;10375352;28;20288;-30
2023/12/07 18:38:27;;;;;;;18.27;10.37;;;;;;;17.39;44.76;96258.06;10400205;28;20033;-30
2023/12/07 18:43:29;;;;;;;10.77;9.57;;;;;;;17.41;42.54;96272.38;10397181;28;20650;-30
2023/12/07 18:48:29;;;;;;;12.82;9.25;;;;;;;17.41;44.26;96296.88;10386276;28;20030;-30
2023/12/07 18:53:29;;;;;;;15.73;10.07;;;;;;;17.48;43.22;96318.78;10389227;28;20033;-30
2023/12/07 18:58:30;;;;;;;13.67;9.57;;;;;;;17.49;43.03;96316.22;10389436;28;20044;-30
2023/12/07 19:03:31;;;;;;;12.50;9.70;;;;;;;17.47;43.72;96328.06;10387807;28;20069;-30
2023/12/07 19:08:31;;;;;;;13.63;10.18;;;;;;;17.50;43.01;96312.84;10407569;28;20045;-29
2023/12/07 19:13:32;;;;;;;15.17;11.17;;;;;;;17.53;43.86;96291.75;10403785;28;20032;-29
2023/12/07 19:18:33;;;;;;;13.00;9.07;;;;;;;17.52;44.58;96274.91;10402970;28;20079;-29
2023/12/07 19:23:33;;;;;;;13.57;9.05;;;;;;;17.53;43.77;96256.31;10386758;28;20041;-29
2023/12/07 19:28:34;;;;;;;15.48;10.43;;;;;;;17.51;46.21;96258.84;10386133;28;20040;-30
2023/12/07 19:33:34;;;;;;;15.13;10.43;;;;;;;17.50;45.67;96251.28;10396634;28;20088;-29
2023/12/07 19:38:34;;;;;;;16.03;10.07;;;;;;;17.50;45.99;96231.03;10379696;28;20507;-30
2023/12/07 19:43:35;;;;;;;13.27;9.03;;;;;;;17.45;44.89;96238.66;10378385;28;20042;-30
2023/12/07 19:48:36;;;;;;;12.00;7.77;;;;;;;17.46;44.10;96206.59;10381168;28;20171;-29
2023/12/07 19:53:37;;;;;;;10.23;7.72;;;;;;;17.43;44.79;96201.53;10379849;28;20503;-30
2023/12/07 19:58:37;;;;;;;14.23;9.43;;;;;;;17.47;45.81;96200.66;10378848;28;20040;-29
2023/12/07 20:03:38;;;;;;;13.07;8.55;;;;;;;17.39;44.22;96184.66;10391315;28;20354;-31
2023/12/07 20:08:38;;;;;;;12.53;8.27;;;;;;;17.40;45.37;96184.69;10400392;28;20403;-29
2023/12/07 20:13:38;;;;;;;20.93;8.90;;;;;;;17.40;46.50;96179.63;10393780;28;20033;-31
2023/12/07 20:18:39;;;;;;;16.13;7.60;;;;;;;17.37;44.59;96167.00;10398851;28;20030;-28
2023/12/07 20:23:42;;;;;;;12.43;8.07;;;;;;;17.40;44.69;96164.44;10405753;28;20040;-29
2023/12/07 20:28:53;;;;;;;15.27;8.52;;;;;;;17.43;46.84;96151.78;10420967;28;20565;-29
2023/12/07 20:33:55;;;;;;;11.35;7.68;;;;;;;17.44;46.92;96134.91;10397923;28;20476;-29
2023/12/07 20:38:55;;;;;;;10.63;7.72;;;;;;;17.44;47.54;96135.75;10392568;28;20025;-30
2023/12/07 20:43:56;;;;;;;11.00;7.17;;;;;;;17.44;46.63;96130.69;10395250;28;20100;-30
2023/12/07 20:48:56;;;;;;;10.85;7.90;;;;;;;17.43;47.15;96123.97;10387967;28;20034;-30
2023/12/07 20:53:57;;;;;;;11.60;7.20;;;;;;;17.43;46.67;96112.97;10393346;28;20021;-30
2023/12/07 20:58:57;;;;;;;11.67;6.87;;;;;;;17.43;47.75;96112.97;10402733;28;20036;-32
2023/12/07 21:03:57;;;;;;;10.77;6.40;;;;;;;17.42;47.79;96093.59;10401031;28;20029;-30
2023/12/07 21:08:58;;;;;;;12.27;7.30;;;;;;;17.43;46.49;96087.69;10394915;28;20037;-30
2023/12/07 21:13:58;;;;;;;11.70;6.80;;;;;;;17.43;46.44;96077.56;10412364;28;20082;-30
2023/12/07 21:18:58;;;;;;;11.53;6.50;;;;;;;17.44;46.78;96069.09;10413553;28;20280;-29
2023/12/07 21:23:59;;;;;;;10.37;6.33;;;;;;;17.43;45.16;96048.03;10409654;28;20025;-30
2023/12/07 21:28:59;;;;;;;12.83;5.87;;;;;;;17.44;45.92;96053.94;10396708;28;20038;-29
2023/12/07 21:34:00;;;;;;;7.80;4.68;;;;;;;17.43;45.75;96042.97;10409241;28;20106;-29
2023/12/07 21:39:00;;;;;;;8.60;5.90;;;;;;;17.43;46.28;96037.91;10415303;28;20115;-31
2023/12/07 21:44:01;;;;;;;10.48;5.32;;;;;;;17.42;45.27;96005.03;10423822;28;20410;-31
2023/12/07 21:49:02;;;;;;;9.33;5.63;;;;;;;17.42;45.98;95977.19;10403948;28;20029;-29
2023/12/07 21:54:02;;;;;;;9.10;5.53;;;;;;;17.41;47.03;95962.88;10410812;28;20029;-29
2023/12/07 21:59:02;;;;;;;5.75;4.45;;;;;;;17.36;45.83;95951.94;10405519;28;20038;-30
2023/12/07 22:04:03;;;;;;;7.93;5.10;;;;;;;17.42;49.93;95965.38;10418391;28;20044;-29
2023/12/07 22:09:03;;;;;;;6.90;4.63;;;;;;;17.40;48.95;95956.13;10402215;28;20029;-29
2023/12/07 22:14:04;;;;;;;8.05;4.95;;;;;;;17.34;50.26;95938.44;10418586;28;20079;-30
2023/12/07 22:19:04;;;;;;;7.37;5.03;;;;;;;17.39;50.14;95939.25;10402311;28;20046;-30
2023/12/07 22:24:05;;;;;;;7.13;4.77;;;;;;;17.39;48.28;95936.72;10408483;28;20346;-30
2023/12/07 22:29:05;;;;;;;7.38;4.13;;;;;;;17.39;49.15;95929.13;10432757;28;20140;-30
2023/12/07 22:34:07;;;;;;;5.53;3.60;;;;;;;17.36;45.81;95940.13;10414210;28;20405;-30
2023/12/07 22:39:08;;;;;;;5.25;3.40;;;;;;;17.40;45.87;95956.97;10434399;28;20047;-29
2023/12/07 22:44:11;;;;;;;6.18;3.58;;;;;;;17.40;45.70;95968.78;10423648;28;20033;-30
2023/12/07 22:49:13;;;;;;;4.88;2.90;;;;;;;17.39;45.51;95978.06;10414464;28;20102;-30
2023/12/07 22:54:13;;;;;;;4.72;3.50;;;;;;;17.40;45.40;95971.31;10395383;28;20030;-30
2023/12/07 22:59:14;;;;;;;5.37;3.10;;;;;;;17.39;45.04;95960.34;10414880;28;20033;-30
2023/12/07 23:04:14;;;;;;;6.90;3.40;;;;;;;17.39;45.44;95945.16;10406932;28;20030;-29
2023/12/07 23:09:14;;;;;;;4.33;3.43;;;;;;;17.38;46.59;95932.50;10397963;28;20034;-30
2023/12/07 23:14:15;;;;;;;4.70;3.50;;;;;;;17.37;46.11;95923.25;10417910;28;20037;-30
2023/12/07 23:19:16;;;;;;;5.25;3.65;;;;;;;17.35;46.05;95912.28;10397566;28;20045;-30